Time;durP1;ratioP1;P1;durP2;ratioP2;P2;SDS_P1;SDS_P2;PMS_P1;PMS_P2;Temp;Humidity;BMP_temperature;BMP_pressure;BME280_temperature;BME280_humidity;BME280_pressure;Samples;Min_cycle;Max_cycle;Signal;HPM_P1;HPM_P2
2022/05/23 00:00:29;;;;;;;;;6.00;6.00;;;;;20.69;61.33;99775.69;4867657;29;45989;-83
2022/05/23 00:02:54;;;;;;;;;8.33;6.67;;;;;20.69;62.67;99756.78;4851972;29;45433;-83
2022/05/23 00:05:20;;;;;;;;;8.00;8.00;;;;;20.58;61.74;99735.56;4869407;29;45487;-84
2022/05/23 00:07:48;;;;;;;;;9.67;9.67;;;;;20.63;62.46;99754.34;4868961;29;45045;-83
2022/05/23 00:10:15;;;;;;;;;8.00;8.00;;;;;20.66;63.11;99770.41;4867144;29;45454;-83
2022/05/23 00:12:43;;;;;;;;;7.67;7.67;;;;;20.54;62.15;99748.34;4867342;29;45330;-83
2022/05/23 00:15:12;;;;;;;;;7.33;7.00;;;;;20.64;62.28;99764.19;4868567;29;45435;-82
2022/05/23 00:17:38;;;;;;;;;8.33;8.33;;;;;20.58;62.16;99757.19;4854852;29;46875;-82
2022/05/23 00:20:06;;;;;;;;;7.00;7.00;;;;;20.64;62.29;99762.34;4872115;29;44769;-81
2022/05/23 00:22:32;;;;;;;;;9.00;8.67;;;;;20.57;62.40;99741.94;4869916;29;45430;-82
2022/05/23 00:24:58;;;;;;;;;8.00;8.00;;;;;20.64;62.36;99740.75;4853755;29;45620;-81
2022/05/23 00:27:24;;;;;;;;;9.00;9.00;;;;;20.62;62.04;99741.75;4869043;29;47287;-82
2022/05/23 00:29:51;;;;;;;;;10.00;9.00;;;;;20.57;62.88;99734.69;4872241;29;45788;-82
2022/05/23 00:37:52;;;;;;;;;8.67;8.67;;;;;20.69;61.11;99718.94;4872184;29;45484;-82
2022/05/23 00:40:33;;;;;;;;;6.67;6.67;;;;;20.71;61.68;99692.75;4869361;29;45937;-82
2022/05/23 00:43:14;;;;;;;;;7.33;7.00;;;;;20.68;62.00;99684.75;4853657;29;45562;-82
2022/05/23 00:45:51;;;;;;;;;9.00;7.00;;;;;20.68;61.68;99700.97;4869594;29;44884;-82
2022/05/23 00:48:22;;;;;;;;;9.00;8.00;;;;;20.68;61.47;99699.16;4853093;29;46912;-82
2022/05/23 00:50:53;;;;;;;;;8.00;8.00;;;;;20.68;61.04;99682.06;4869540;29;45437;-82
2022/05/23 00:53:27;;;;;;;;;7.00;7.00;;;;;20.69;61.61;99670.31;4870069;29;45794;-83
2022/05/23 00:55:52;;;;;;;;;8.33;8.33;;;;;20.63;61.82;99674.16;4852381;29;45524;-82
2022/05/23 00:58:22;;;;;;;;;7.00;7.00;;;;;20.68;61.29;99668.53;4852482;29;47672;-82
2022/05/23 01:00:50;;;;;;;;;9.00;8.33;;;;;20.75;61.29;99668.22;4870889;29;45481;-82
2022/05/23 01:03:19;;;;;;;;;8.00;8.00;;;;;20.70;61.34;99663.94;4872305;29;45504;-82
2022/05/23 01:05:45;;;;;;;;;7.67;7.67;;;;;20.69;61.12;99659.50;4856182;29;45002;-82
2022/05/23 01:08:16;;;;;;;;;7.67;7.00;;;;;20.77;61.34;99657.34;4871440;29;45501;-82
2022/05/23 01:10:42;;;;;;;;;6.33;6.33;;;;;20.75;61.20;99652.00;4873344;29;45271;-82
2022/05/23 01:13:08;;;;;;;;;8.00;8.00;;;;;20.70;61.20;99648.66;4855552;29;45533;-82
2022/05/23 01:15:34;;;;;;;;;7.67;6.67;;;;;20.72;61.48;99641.34;4873061;29;44960;-82
2022/05/23 01:18:00;;;;;;;;;7.33;7.33;;;;;20.66;62.65;99619.09;4872575;28;45493;-82
2022/05/23 01:20:25;;;;;;;;;8.67;8.67;;;;;20.57;61.92;99609.56;4856448;29;45419;-82
2022/05/23 01:23:12;;;;;;;;;7.33;6.33;;;;;20.66;62.04;99617.28;4855573;29;45328;-84
2022/05/23 01:25:45;;;;;;;;;7.00;7.00;;;;;20.55;62.03;99596.13;4872088;28;45478;-82
2022/05/23 01:28:11;;;;;;;;;7.33;7.33;;;;;20.54;62.20;99605.19;4871919;28;47409;-82
2022/05/23 01:30:40;;;;;;;;;6.33;6.33;;;;;20.49;62.14;99584.75;4855718;29;45673;-81
2022/05/23 01:33:07;;;;;;;;;6.00;6.00;;;;;20.44;61.92;99579.56;4873595;29;45542;-81
2022/05/23 01:35:33;;;;;;;;;7.00;7.00;;;;;20.44;62.08;99575.94;4855901;29;45433;-83
2022/05/23 01:37:58;;;;;;;;;8.33;8.33;;;;;20.35;62.40;99550.25;4873524;29;45332;-83
2022/05/23 01:41:14;;;;;;;;;9.67;9.67;;;;;20.51;61.92;99567.50;4874324;28;45604;-83
2022/05/23 01:43:39;;;;;;;;;9.00;9.00;;;;;20.43;62.45;99574.22;4857657;29;45485;-84
2022/05/23 01:46:05;;;;;;;;;10.67;10.67;;;;;20.32;62.58;99553.97;4873769;28;45363;-83
2022/05/23 01:48:30;;;;;;;;;15.67;14.67;;;;;20.34;62.13;99546.69;4873629;29;46110;-82
2022/05/23 01:50:55;;;;;;;;;11.00;11.00;;;;;20.27;62.96;99539.78;4872110;28;45326;-83
2022/05/23 01:53:21;;;;;;;;;13.00;11.33;;;;;20.20;63.17;99527.53;4871314;28;45466;-82
2022/05/23 01:55:46;;;;;;;;;12.67;12.33;;;;;20.15;63.69;99530.41;4854825;28;45660;-82
2022/05/23 01:58:12;;;;;;;;;15.00;14.67;;;;;20.11;64.21;99520.69;4869940;29;45450;-83
2022/05/23 02:03:21;;;;;;;;;14.00;11.67;;;;;20.15;63.77;99521.44;4869429;29;45546;-83
2022/05/23 02:05:48;;;;;;;;;10.67;10.67;;;;;20.11;63.87;99528.78;4869617;29;45785;-82
2022/05/23 02:08:13;;;;;;;;;11.67;11.67;;;;;20.10;64.14;99523.50;4869826;28;45391;-82
2022/05/23 02:10:40;;;;;;;;;12.33;12.33;;;;;20.08;64.15;99515.47;4870196;28;45583;-84
2022/05/23 02:13:05;;;;;;;;;13.33;12.00;;;;;20.06;64.10;99522.75;4868929;29;45481;-84
2022/05/23 02:15:32;;;;;;;;;10.67;10.67;;;;;20.08;64.03;99519.97;4874156;29;45484;-82
2022/05/23 02:18:00;;;;;;;;;8.67;8.00;;;;;20.06;63.74;99528.16;4857875;29;45375;-83
2022/05/23 02:20:26;;;;;;;;;11.00;9.67;;;;;20.09;63.77;99532.53;4872826;29;45512;-81
2022/05/23 02:22:53;;;;;;;;;8.00;8.00;;;;;20.16;64.26;99540.28;4873161;28;44958;-82
2022/05/23 02:25:19;;;;;;;;;7.00;7.00;;;;;20.07;65.28;99537.97;4874304;29;44790;-82
2022/05/23 02:27:45;;;;;;;;;8.00;8.00;;;;;20.01;64.58;99551.75;4871018;29;46874;-83
2022/05/23 02:30:11;;;;;;;;;8.00;8.00;;;;;19.94;64.77;99544.88;4870700;29;45395;-82
2022/05/23 02:32:37;;;;;;;;;6.67;6.33;;;;;19.94;64.55;99540.34;4874007;28;45416;-82
2022/05/23 02:35:03;;;;;;;;;6.67;6.33;;;;;20.06;64.90;99540.78;4870871;29;45449;-82
2022/05/23 02:37:29;;;;;;;;;9.00;7.67;;;;;20.05;64.84;99542.56;4869027;29;46725;-82
2022/05/23 02:39:54;;;;;;;;;8.67;7.33;;;;;20.07;64.55;99543.38;4853815;29;45732;-82
2022/05/23 02:42:20;;;;;;;;;7.67;7.67;;;;;20.01;64.65;99543.66;4870924;29;45421;-82
2022/05/23 02:44:46;;;;;;;;;12.00;9.00;;;;;20.00;64.72;99550.00;4854528;29;44873;-82
2022/05/23 02:47:13;;;;;;;;;7.00;7.00;;;;;20.01;65.34;99535.56;4855802;29;47917;-82
2022/05/23 02:49:38;;;;;;;;;9.00;8.33;;;;;19.98;65.64;99546.50;4855107;29;44905;-83
2022/05/23 02:52:04;;;;;;;;;8.67;8.00;;;;;19.95;65.41;99541.22;4854620;29;45444;-83
2022/05/23 02:54:29;;;;;;;;;7.00;7.00;;;;;19.98;65.57;99538.41;4872368;29;45038;-83
2022/05/23 02:56:55;;;;;;;;;10.00;9.00;;;;;19.98;65.50;99533.00;4872059;28;45431;-83
2022/05/23 02:59:20;;;;;;;;;7.67;7.67;;;;;19.99;65.65;99549.09;4855880;29;45573;-81
2022/05/23 03:04:30;;;;;;;;;7.67;7.67;;;;;20.05;65.74;99547.97;4871464;29;45624;-81
2022/05/23 03:06:57;;;;;;;;;9.00;9.00;;;;;20.05;65.77;99550.66;4872703;29;45392;-82
2022/05/23 03:09:22;;;;;;;;;9.00;7.33;;;;;20.03;65.92;99543.59;4856194;29;45896;-82
2022/05/23 03:11:48;;;;;;;;;9.33;9.33;;;;;20.12;65.82;99556.69;4856242;29;45434;-82
2022/05/23 03:14:14;;;;;;;;;6.00;6.00;;;;;20.11;66.40;99547.69;4857218;29;44824;-81
2022/05/23 03:16:39;;;;;;;;;7.33;7.33;;;;;20.13;66.22;99544.94;4872193;29;45386;-82
2022/05/23 03:19:04;;;;;;;;;8.00;8.00;;;;;20.15;66.08;99543.91;4856758;29;45426;-83
2022/05/23 03:27:05;;;;;;;;;8.00;8.00;;;;;20.17;66.17;99546.56;4874512;29;45786;-81
2022/05/23 03:29:31;;;;;;;;;6.33;6.33;;;;;20.16;66.64;99518.69;4857965;29;44797;-82
2022/05/23 03:32:04;;;;;;;;;10.00;9.00;;;;;20.13;66.55;99502.63;4874712;29;45435;-82
2022/05/23 03:34:29;;;;;;;;;8.00;8.00;;;;;20.05;67.33;99488.59;4874280;29;45444;-82
2022/05/23 03:36:55;;;;;;;;;12.00;10.00;;;;;20.00;68.63;99487.94;4857153;29;46858;-83
2022/05/23 03:39:20;;;;;;;;;10.33;10.33;;;;;19.90;68.15;99492.00;4874004;29;45597;-82
2022/05/23 03:41:46;;;;;;;;;10.67;8.67;;;;;19.92;68.25;99514.38;4857497;29;46139;-82
2022/05/23 03:44:11;;;;;;;;;9.67;9.00;;;;;19.93;68.25;99508.03;4871922;29;45619;-82
2022/05/23 03:46:37;;;;;;;;;9.67;9.67;;;;;19.85;68.44;99496.69;4874173;29;45411;-82
2022/05/23 03:49:06;;;;;;;;;9.67;9.67;;;;;19.91;68.56;99499.13;4855637;29;45396;-83
2022/05/23 03:51:33;;;;;;;;;8.33;8.33;;;;;19.86;68.93;99488.53;4854472;29;45789;-82
2022/05/23 03:53:58;;;;;;;;;12.67;11.00;;;;;19.80;69.17;99472.63;4872897;29;45451;-81
2022/05/23 03:56:24;;;;;;;;;13.67;11.67;;;;;19.69;71.32;99470.38;4856373;29;46921;-82
2022/05/23 03:58:49;;;;;;;;;11.67;11.67;;;;;19.65;70.29;99487.63;4855858;29;45392;-81
2022/05/23 04:01:21;;;;;;;;;8.00;8.00;;;;;19.61;70.22;99483.28;4871854;29;44900;-82
2022/05/23 04:03:47;;;;;;;;;10.33;8.00;;;;;19.60;70.78;99492.34;4854268;29;45512;-82
2022/05/23 04:06:12;;;;;;;;;8.33;8.33;;;;;19.68;70.25;99490.19;4868654;29;47155;-82
2022/05/23 04:08:38;;;;;;;;;10.00;10.00;;;;;19.71;70.63;99478.41;4871405;29;45487;-81
2022/05/23 04:11:06;;;;;;;;;8.00;8.00;;;;;19.66;70.64;99451.63;4869716;29;45526;-82
2022/05/23 04:13:32;;;;;;;;;8.67;8.67;;;;;19.80;70.37;99469.06;4869743;29;45380;-81
2022/05/23 04:15:58;;;;;;;;;9.00;8.33;;;;;19.81;70.07;99462.72;4870625;29;46754;-82
2022/05/23 04:18:23;;;;;;;;;11.00;11.00;;;;;19.79;69.95;99451.97;4871932;29;45444;-82
2022/05/23 04:20:49;;;;;;;;;10.67;9.67;;;;;19.84;69.97;99441.00;4872103;29;45394;-82
2022/05/23 04:23:15;;;;;;;;;11.00;9.67;;;;;19.88;69.52;99437.22;4854914;29;45527;-82
2022/05/23 04:25:43;;;;;;;;;10.67;10.67;;;;;19.91;71.33;99429.84;4871574;29;47360;-83
2022/05/23 04:28:09;;;;;;;;;9.33;9.33;;;;;19.88;71.17;99416.50;4855820;29;45463;-82
2022/05/23 04:30:35;;;;;;;;;12.67;11.67;;;;;19.82;72.00;99397.91;4856042;29;44937;-82
2022/05/23 04:35:45;;;;;;;;;9.67;9.67;;;;;19.78;74.13;99407.94;4870234;29;45072;-83
2022/05/23 04:38:11;;;;;;;;;12.33;11.33;;;;;19.75;75.71;99418.00;4869277;29;46119;-82
2022/05/23 04:40:38;;;;;;;;;12.00;12.00;;;;;19.71;80.44;99409.19;4854611;29;45726;-82
2022/05/23 04:43:04;;;;;;;;;14.67;12.00;;;;;19.68;81.15;99403.00;4871224;29;45372;-82
2022/05/23 04:45:30;;;;;;;;;10.67;10.67;;;;;19.62;80.21;99408.69;4851615;29;46212;-82
2022/05/23 04:50:39;;;;;;;;;11.00;11.00;;;;;19.75;82.26;99409.91;4870186;29;45516;-83
2022/05/23 04:53:06;;;;;;;;;12.00;12.00;;;;;19.80;82.01;99428.59;4853513;29;45442;-83
2022/05/23 04:55:33;;;;;;;;;13.00;13.00;;;;;19.74;83.61;99418.94;4869906;29;45568;-83
2022/05/23 04:57:59;;;;;;;;;11.00;11.00;;;;;19.68;82.97;99398.47;4854357;29;45426;-83
2022/05/23 05:00:26;;;;;;;;;12.33;11.00;;;;;19.80;83.23;99412.41;4871231;29;45412;-82
2022/05/23 05:02:52;;;;;;;;;10.33;10.33;;;;;19.71;82.58;99395.69;4856384;29;45456;-82
2022/05/23 05:05:18;;;;;;;;;15.00;14.00;;;;;19.87;82.71;99389.59;4872413;28;44908;-82
2022/05/23 05:07:45;;;;;;;;;14.67;13.00;;;;;19.86;82.20;99379.75;4873126;29;45415;-83
2022/05/23 05:10:11;;;;;;;;;14.00;14.00;;;;;19.86;82.79;99377.06;4855619;29;44874;-82
2022/05/23 05:12:37;;;;;;;;;12.00;12.00;;;;;19.79;83.89;99400.72;4857328;29;45461;-83
2022/05/23 05:15:03;;;;;;;;;12.00;12.00;;;;;19.73;84.24;99374.94;4873416;29;45463;-82
2022/05/23 05:17:30;;;;;;;;;12.00;12.00;;;;;19.76;87.13;99361.28;4855416;29;45524;-82
2022/05/23 05:19:56;;;;;;;;;12.33;11.00;;;;;19.76;86.82;99379.28;4854001;29;45511;-82
2022/05/23 05:22:21;;;;;;;;;11.67;10.67;;;;;19.75;86.08;99373.03;4870896;29;45321;-82
2022/05/23 05:24:46;;;;;;;;;14.67;14.67;;;;;19.83;86.12;99374.47;4871902;29;45445;-82
2022/05/23 05:27:13;;;;;;;;;17.33;15.67;;;;;19.86;87.39;99358.16;4855016;29;45652;-83
2022/05/23 05:29:38;;;;;;;;;16.33;14.67;;;;;19.90;87.97;99347.16;4854897;29;45409;-83
2022/05/23 05:32:16;;;;;;;;;16.67;15.67;;;;;20.00;86.79;99344.91;4870456;28;45354;-82
2022/05/23 05:34:48;;;;;;;;;16.33;16.00;;;;;20.05;85.08;99301.50;4873640;29;46392;-81
2022/05/23 05:40:36;;;;;;;;;15.00;15.00;;;;;20.07;86.73;99327.47;4873772;29;45482;-82
2022/05/23 05:43:12;;;;;;;;;19.67;18.67;;;;;20.10;87.43;99361.56;4856374;29;45399;-82
2022/05/23 05:45:43;;;;;;;;;18.00;18.00;;;;;20.02;88.20;99383.50;4856677;29;46883;-82
2022/05/23 05:48:09;;;;;;;;;15.33;14.67;;;;;20.00;94.41;99388.09;4870498;29;45490;-82
2022/05/23 05:50:39;;;;;;;;;15.00;15.00;;;;;19.93;97.31;99392.88;4855569;29;45768;-82
2022/05/23 05:53:11;;;;;;;;;14.33;14.33;;;;;19.85;97.65;99381.56;4874212;29;45519;-82
2022/05/23 05:55:39;;;;;;;;;14.00;14.00;;;;;19.84;97.85;99381.66;4873548;29;45133;-82
2022/05/23 05:58:05;;;;;;;;;11.67;11.67;;;;;19.74;98.13;99363.16;4871187;29;44914;-82
2022/05/23 06:00:31;;;;;;;;;11.67;11.67;;;;;19.76;98.07;99353.19;4871155;29;45484;-82
2022/05/23 06:02:56;;;;;;;;;10.00;10.00;;;;;19.80;97.21;99358.47;4876124;29;45394;-82
2022/05/23 06:05:22;;;;;;;;;11.67;11.33;;;;;19.79;96.46;99362.94;4874023;29;47037;-82
2022/05/23 06:13:17;;;;;;;;;12.67;12.00;;;;;20.31;95.03;99376.69;4858884;29;45623;-83
2022/05/23 06:15:43;;;;;;;;;14.00;14.00;;;;;20.52;93.82;99372.09;4845160;29;47285;-82
2022/05/23 06:18:10;;;;;;;;;14.33;13.67;;;;;20.82;92.11;99386.91;4839674;29;45447;-82
2022/05/23 06:20:36;;;;;;;;;11.00;10.00;;;;;20.85;90.86;99379.53;4857191;29;45409;-82
2022/05/23 06:23:03;;;;;;;;;11.67;10.00;;;;;20.96;90.69;99382.53;4855768;29;45481;-82
2022/05/23 06:25:29;;;;;;;;;11.67;11.67;;;;;20.94;90.34;99365.53;4855493;29;47457;-82
2022/05/23 06:27:54;;;;;;;;;9.67;9.67;;;;;20.95;89.33;99361.88;4873558;29;45350;-83
2022/05/23 06:30:20;;;;;;;;;12.67;10.33;;;;;20.91;89.19;99349.47;4842473;29;45465;-82
2022/05/23 06:32:46;;;;;;;;;9.67;9.67;;;;;20.90;88.27;99350.41;4853457;29;45518;-82
2022/05/23 06:35:12;;;;;;;;;11.67;11.33;;;;;20.82;88.67;99339.13;4843632;29;46733;-83
2022/05/23 06:37:41;;;;;;;;;10.67;10.67;;;;;20.79;88.29;99352.81;4862711;29;45531;-82
2022/05/23 06:40:09;;;;;;;;;10.33;10.33;;;;;20.69;89.23;99346.13;4880437;29;45417;-82
2022/05/23 06:42:35;;;;;;;;;13.67;11.00;;;;;20.63;89.44;99336.50;4862571;29;45640;-82
2022/05/23 06:45:01;;;;;;;;;9.00;9.00;;;;;20.63;88.95;99314.00;4862572;29;46859;-82
2022/05/23 06:47:27;;;;;;;;;13.00;12.00;;;;;20.66;89.22;99305.72;4878901;29;45491;-82
2022/05/23 06:49:53;;;;;;;;;9.67;9.67;;;;;20.69;88.44;99313.69;4860924;29;45524;-82
2022/05/23 06:52:19;;;;;;;;;10.67;9.00;;;;;20.78;88.88;99315.91;4877971;29;45520;-84
2022/05/23 06:54:46;;;;;;;;;9.00;9.00;;;;;20.78;87.90;99316.81;4878652;29;45539;-83
2022/05/23 06:57:11;;;;;;;;;8.67;8.67;;;;;20.84;87.98;99314.75;4878463;29;45316;-83
2022/05/23 06:59:37;;;;;;;;;11.67;11.67;;;;;20.90;88.05;99298.22;4859650;29;45375;-83
2022/05/23 07:02:06;;;;;;;;;12.00;10.00;;;;;21.00;88.03;99306.72;4877751;29;45504;-82
2022/05/23 07:12:59;;;;;;;;;13.67;13.67;;;;;21.13;88.04;99305.13;4875205;29;45925;-83
2022/05/23 07:15:27;;;;;;;;;10.33;10.33;;;;;21.15;87.55;99298.69;4876894;29;45168;-83
2022/05/23 07:17:54;;;;;;;;;11.00;11.00;;;;;21.25;88.05;99317.09;4879657;29;44717;-82
2022/05/23 07:20:19;;;;;;;;;11.67;11.67;;;;;21.20;87.61;99316.50;4860399;29;45588;-83
2022/05/23 07:22:45;;;;;;;;;12.67;12.67;;;;;21.20;88.20;99313.78;4858535;29;45568;-82
2022/05/23 07:25:10;;;;;;;;;13.00;12.67;;;;;21.20;88.76;99316.50;4872265;29;47029;-82
2022/05/23 07:27:36;;;;;;;;;12.00;11.33;;;;;21.17;88.54;99329.22;4873077;29;45470;-84
2022/05/23 07:30:03;;;;;;;;;15.00;14.00;;;;;21.13;88.21;99322.22;4856281;29;44783;-84
2022/05/23 07:32:29;;;;;;;;;11.33;9.67;;;;;21.15;88.79;99324.84;4878647;29;44866;-83
2022/05/23 07:34:56;;;;;;;;;12.00;12.00;;;;;21.06;88.99;99331.59;4860987;29;47887;-83
2022/05/23 07:37:22;;;;;;;;;12.67;12.00;;;;;21.08;88.79;99334.22;4878747;29;45694;-83
2022/05/23 07:39:47;;;;;;;;;10.67;10.67;;;;;21.05;89.99;99329.00;4878364;29;45357;-83
2022/05/23 07:42:16;;;;;;;;;12.33;11.00;;;;;21.08;89.46;99329.69;4879918;29;44751;-84
2022/05/23 07:44:47;;;;;;;;;12.33;12.00;;;;;21.11;89.37;99345.75;4878134;29;45274;-84
2022/05/23 07:47:14;;;;;;;;;9.00;9.00;;;;;21.13;88.89;99334.88;4863026;29;45452;-84
2022/05/23 07:49:39;;;;;;;;;12.00;10.67;;;;;21.11;89.43;99309.75;4863063;29;45447;-84
2022/05/23 07:52:11;;;;;;;;;10.33;10.00;;;;;20.99;88.89;99259.91;4877932;29;45589;-84
2022/05/23 08:00:33;;;;;;;;;10.00;10.00;;;;;21.34;87.60;99233.66;4879991;29;45483;-85
2022/05/23 08:03:18;;;;;;;;;13.00;11.00;;;;;21.49;87.10;99263.56;4861249;29;44882;-84
2022/05/23 08:05:45;;;;;;;;;9.33;9.33;;;;;21.49;87.30;99269.88;4846469;29;47089;-83
2022/05/23 08:08:11;;;;;;;;;12.00;11.00;;;;;21.64;87.38;99278.97;4860516;29;45244;-83
2022/05/23 08:17:20;;;;;;;;;10.33;10.33;;;;;21.66;87.16;99290.59;4878792;28;45484;-83
2022/05/23 08:19:46;;;;;;;;;10.67;10.67;;;;;21.68;87.61;99291.38;4861277;28;44939;-84
2022/05/23 08:22:12;;;;;;;;;12.00;12.00;;;;;21.58;88.22;99279.31;4845540;29;45431;-85
2022/05/23 08:24:38;;;;;;;;;14.33;12.67;;;;;21.54;87.64;99275.03;4876442;29;45490;-84
2022/05/23 08:27:05;;;;;;;;;12.00;12.00;;;;;21.73;87.46;99291.13;4859589;29;45582;-84
2022/05/23 08:29:37;;;;;;;;;12.33;12.33;;;;;21.67;87.28;99284.22;4859600;29;44859;-85
2022/05/23 08:32:10;;;;;;;;;14.00;14.00;;;;;21.72;87.38;99305.63;4861136;29;45399;-83
2022/05/23 08:34:37;;;;;;;;;13.00;13.00;;;;;21.73;87.01;99315.47;4859571;29;44930;-84
2022/05/23 08:37:03;;;;;;;;;12.00;12.00;;;;;21.47;87.79;99304.25;4876562;29;47236;-83
2022/05/23 08:39:29;;;;;;;;;17.67;16.33;;;;;21.51;89.12;99318.47;4878569;28;44785;-83
2022/05/23 08:41:54;;;;;;;;;15.67;15.67;;;;;21.31;89.40;99305.97;4875750;29;45420;-84
2022/05/23 08:45:13;;;;;;;;;14.67;13.33;;;;;21.42;89.37;99311.69;4867694;29;45374;-85
2022/05/23 08:48:00;;;;;;;;;17.00;15.67;;;;;21.56;90.07;99305.56;4834849;29;46770;-83
2022/05/23 08:50:53;;;;;;;;;14.33;13.33;;;;;21.88;89.28;99309.22;4842546;29;45403;-83
2022/05/23 08:53:43;;;;;;;;;13.33;13.33;;;;;22.09;87.81;99312.56;4862990;29;44838;-84
2022/05/23 08:56:22;;;;;;;;;12.67;12.67;;;;;22.25;86.98;99322.56;4820844;29;45466;-84
2022/05/23 08:58:58;;;;;;;;;13.33;13.33;;;;;22.32;85.79;99319.41;4820222;29;45435;-84
2022/05/23 09:01:34;;;;;;;;;12.00;12.00;;;;;22.44;85.05;99320.56;4805343;29;45256;-84
2022/05/23 09:04:34;;;;;;;;;14.00;14.00;;;;;22.54;82.67;99308.22;4807830;29;45450;-84
2022/05/23 09:07:03;;;;;;;;;15.00;14.00;;;;;22.39;81.74;99284.72;4823850;29;44907;-83
2022/05/23 09:09:32;;;;;;;;;12.67;12.67;;;;;22.44;80.46;99312.44;4822758;29;46814;-85
2022/05/23 09:12:12;;;;;;;;;19.67;17.33;;;;;22.42;80.41;99316.16;4819945;29;45557;-85
2022/05/23 09:14:38;;;;;;;;;15.00;15.00;;;;;22.14;80.95;99277.97;4805427;29;45376;-84
2022/05/23 09:17:11;;;;;;;;;15.33;15.33;;;;;22.18;80.16;99284.97;4823142;29;44902;-83
2022/05/23 09:19:59;;;;;;;;;15.33;15.33;;;;;22.42;79.30;99335.13;4806159;29;47036;-83
2022/05/23 09:23:16;;;;;;;;;15.33;14.00;;;;;22.39;79.42;99316.34;4802983;29;45451;-84
2022/05/23 09:25:59;;;;;;;;;17.00;17.00;;;;;22.31;78.18;99297.84;4803716;29;45732;-85
2022/05/23 09:28:28;;;;;;;;;18.00;16.67;;;;;22.40;78.01;99310.84;4809906;29;44902;-85
2022/05/23 09:31:37;;;;;;;;;;;;;;;;;;;;;
2022/05/23 09:34:11;;;;;;;;;17.33;17.33;;;;;22.38;77.24;99274.88;4868156;29;72104;-81
2022/05/23 09:37:20;;;;;;;;;18.67;17.33;;;;;22.70;77.07;99299.16;4854240;29;45449;-83
2022/05/23 09:40:01;;;;;;;;;18.67;17.33;;;;;22.80;76.32;99275.97;4876786;29;45392;-83
2022/05/23 09:49:09;;;;;;;;;20.00;20.00;;;;;22.50;75.06;99257.88;4880421;28;45390;-82
2022/05/23 09:52:09;;;;;;;;;22.00;22.00;;;;;22.87;74.99;99290.91;4874393;29;45476;-82
2022/05/23 09:54:46;;;;;;;;;20.33;19.00;;;;;22.92;73.85;99267.09;4839902;29;45551;-83
2022/05/23 09:57:45;;;;;;;;;;;;;;;;;;;;;
2022/05/23 10:00:23;;;;;;;;;20.33;20.33;;;;;23.22;73.21;99297.91;4871326;28;68169;-84
2022/05/23 10:02:57;;;;;;;;;21.00;20.33;;;;;23.20;72.29;99292.56;4860198;29;45496;-82
2022/05/23 10:05:36;;;;;;;;;25.33;25.33;;;;;23.17;73.24;99290.06;4866456;28;45329;-86
2022/05/23 10:08:10;;;;;;;;;20.33;20.33;;;;;23.14;72.92;99296.53;4877198;28;44823;-83
2022/05/23 10:10:39;;;;;;;;;20.67;20.67;;;;;23.09;72.16;99278.81;4857597;29;45382;-83
2022/05/23 10:13:17;;;;;;;;;20.33;19.67;;;;;23.09;72.05;99286.97;4843445;29;44773;-85
2022/05/23 10:15:59;;;;;;;;;21.33;20.67;;;;;22.91;72.21;99284.34;4864537;29;47541;-84
2022/05/23 10:18:45;;;;;;;;;26.33;24.33;;;;;22.67;72.46;99265.00;4856918;29;45425;-84
2022/05/23 10:21:31;;;;;;;;;22.33;22.33;;;;;22.74;72.70;99290.78;4843959;29;45382;-82
2022/05/23 10:24:19;;;;;;;;;20.67;19.67;;;;;22.67;72.96;99286.69;4874613;29;45356;-82
2022/05/23 10:27:31;;;;;;;;;24.67;22.67;;;;;22.49;72.90;99266.97;4877181;29;45442;-82
2022/05/23 10:30:01;;;;;;;;;25.67;24.00;;;;;22.83;72.85;99286.66;4856713;29;45236;-83
2022/05/23 10:32:48;;;;;;;;;24.00;23.00;;;;;23.00;71.35;99301.03;4851895;29;44942;-85
2022/05/23 10:35:21;;;;;;;;;21.00;19.33;;;;;22.82;70.73;99294.88;4836020;29;44854;-81
2022/05/23 10:37:47;;;;;;;;;19.67;19.00;;;;;22.43;70.69;99289.00;4853523;29;47072;-84
2022/05/23 10:43:16;;;;;;;;;20.67;19.67;;;;;22.11;72.05;99299.78;4881707;28;45224;-84
2022/05/23 10:45:47;;;;;;;;;21.33;21.33;;;;;21.83;72.53;99302.31;4888006;28;45299;-83
2022/05/23 10:48:56;;;;;;;;;17.67;17.00;;;;;21.67;73.58;99303.19;4897666;29;45492;-84
2022/05/23 10:51:57;;;;;;;;;24.00;22.67;;;;;21.27;76.04;99291.75;4873245;29;45483;-83
2022/05/23 10:55:08;;;;;;;;;22.33;22.33;;;;;20.96;78.21;99297.88;4859143;29;45610;-84
2022/05/23 10:57:46;;;;;;;;;22.00;21.67;;;;;20.58;95.36;99300.69;4850658;29;45255;-84
2022/05/23 11:00:24;;;;;;;;;25.00;24.00;;;;;20.17;98.38;99309.00;4878888;29;46089;-84
2022/05/23 11:03:15;;;;;;;;;26.00;23.67;;;;;19.93;100.00;99308.34;4877966;29;45425;-84
2022/05/23 11:06:14;;;;;;;;;26.00;26.00;;;;;19.82;98.15;99302.59;4868631;29;44929;-86
2022/05/23 11:09:18;;;;;;;;;30.00;29.00;;;;;19.75;100.00;99311.00;4886679;29;45396;-83
2022/05/23 11:12:31;;;;;;;;;;;;;;;;;;;;;
2022/05/23 11:15:39;;;;;;;;;29.33;28.67;;;;;19.82;99.03;99318.78;4873532;29;72296;-87
2022/05/23 11:18:32;;;;;;;;;29.33;29.33;;;;;19.96;99.02;99321.72;4878638;29;45647;-85
2022/05/23 11:21:27;;;;;;;;;26.33;26.00;;;;;20.01;96.94;99325.06;4873089;29;45554;-84
2022/05/23 11:24:05;;;;;;;;;22.33;20.33;;;;;19.97;97.31;99301.88;4862296;29;48684;-85
2022/05/23 11:26:41;;;;;;;;;31.33;29.67;;;;;20.00;97.69;99301.72;4863309;29;45432;-85
2022/05/23 11:35:29;;;;;;;;;22.00;21.33;;;;;19.58;100.00;99309.03;4876334;29;45361;-87
2022/05/23 11:38:01;;;;;;;;;24.00;24.00;;;;;19.22;100.00;99308.84;4877406;29;45317;-87
2022/05/23 11:40:26;;;;;;;;;26.33;25.33;;;;;19.14;100.00;99332.56;4873955;29;45242;-84
2022/05/23 11:43:14;;;;;;;;;24.33;24.33;;;;;19.14;100.00;99327.19;4878145;29;45355;-86
2022/05/23 11:46:40;;;;;;;;;;;;;;;;;;;;;
2022/05/23 11:49:48;;;;;;;;;26.67;25.00;;;;;18.87;100.00;99335.53;4879472;29;71060;-84
2022/05/23 11:52:43;;;;;;;;;22.67;21.00;;;;;18.70;100.00;99346.09;4863155;29;45542;-83
2022/05/23 11:55:33;;;;;;;;;24.33;24.33;;;;;18.43;100.00;99330.13;4862089;29;45474;-85
2022/05/23 11:58:28;;;;;;;;;21.00;19.33;;;;;18.05;100.00;99294.88;4881174;29;45393;-85
2022/05/23 12:01:19;;;;;;;;;24.33;23.00;;;;;18.24;100.00;99350.66;4897812;29;44785;-85
2022/05/23 12:03:58;;;;;;;;;;;;;;;;;;;;;
2022/05/23 12:06:23;;;;;;;;;27.00;26.00;;;;;18.08;100.00;99351.28;4870751;29;64277;-84
2022/05/23 12:12:29;;;;;;;;;33.00;31.33;;;;;18.36;100.00;99363.63;4862136;29;44810;-86
2022/05/23 12:15:04;;;;;;;;;28.00;26.00;;;;;18.04;100.00;99320.03;4880298;29;44859;-84
2022/05/23 12:21:20;;;;;;;;;28.33;27.00;;;;;18.19;100.00;99343.63;4767129;29;44891;-85
2022/05/23 12:23:51;;;;;;;;;30.00;28.00;;;;;18.19;100.00;99359.78;4764991;29;45547;-85
2022/05/23 12:26:26;;;;;;;;;29.00;25.00;;;;;18.10;100.00;99341.31;4744505;30;45425;-84
2022/05/23 12:29:20;;;;;;;;;26.33;23.00;;;;;18.14;100.00;99342.97;4746290;30;45565;-84
2022/05/23 12:32:16;;;;;;;;;27.67;27.67;;;;;18.32;100.00;99375.44;4745984;30;45586;-83
2022/05/23 12:34:48;;;;;;;;;24.00;24.00;;;;;18.35;100.00;99380.72;4746527;29;44860;-84
2022/05/23 12:37:27;;;;;;;;;24.33;22.33;;;;;18.36;100.00;99386.03;4748949;29;44947;-83
2022/05/23 12:40:42;;;;;;;;;25.33;24.33;;;;;18.23;100.00;99371.31;4763448;29;45483;-84
2022/05/23 12:43:26;;;;;;;;;20.67;20.00;;;;;18.48;100.00;99390.06;4675706;30;47611;-83
2022/05/23 12:46:29;;;;;;;;;14.33;14.33;;;;;18.48;100.00;99384.69;4675613;30;45419;-83
2022/05/23 12:56:22;;;;;;;;;18.33;17.67;;;;;18.90;100.00;99409.94;4693566;30;45658;-82
2022/05/23 12:59:03;;;;;;;;;19.00;19.00;;;;;18.97;100.00;99409.63;4775207;29;45420;-83
2022/05/23 13:01:37;;;;;;;;;26.67;23.33;;;;;18.99;100.00;99361.94;4799994;29;45326;-84
2022/05/23 13:04:28;;;;;;;;;22.00;22.00;;;;;19.46;100.00;99400.38;4786871;29;45621;-82
2022/05/23 13:07:12;;;;;;;;;22.00;21.33;;;;;19.42;100.00;99379.91;4798587;29;45549;-83
2022/05/23 13:09:38;;;;;;;;;19.67;18.00;;;;;19.54;100.00;99417.09;4795882;29;46772;-83
2022/05/23 13:12:19;;;;;;;;;21.67;21.00;;;;;19.65;100.00;99398.59;4800983;29;45424;-83
2022/05/23 13:15:20;;;;;;;;;12.00;12.00;;;;;20.03;100.00;99405.94;4803184;29;44814;-83